sensor_id;sensor_type;location;lat;lon;timestamp;pressure;altitude;pressure_sealevel;temperature;humidity
43681;BME280;29281;50.356;30.894;2023-08-20T00:00:57;100518.02;;;25.51;82.71
43681;BME280;29281;50.356;30.894;2023-08-20T00:02:01;100512.35;;;25.52;83.03
43681;BME280;29281;50.356;30.894;2023-08-20T00:03:13;100514.50;;;25.57;82.54
43681;BME280;29281;50.356;30.894;2023-08-20T00:04:17;100522.00;;;25.55;82.86
43681;BME280;29281;50.356;30.894;2023-08-20T00:05:22;100515.53;;;25.56;82.61
43681;BME280;29281;50.356;30.894;2023-08-20T00:06:29;100507.95;;;25.51;83.25
43681;BME280;29281;50.356;30.894;2023-08-20T00:07:34;100513.47;;;25.58;82.72
43681;BME280;29281;50.356;30.894;2023-08-20T00:08:38;100514.96;;;25.61;82.67
43681;BME280;29281;50.356;30.894;2023-08-20T00:09:43;100512.08;;;25.62;82.67
43681;BME280;29281;50.356;30.894;2023-08-20T00:10:50;100511.23;;;25.62;82.63
43681;BME280;29281;50.356;30.894;2023-08-20T00:11:53;100514.31;;;25.58;83.10
43681;BME280;29281;50.356;30.894;2023-08-20T00:12:58;100512.44;;;25.59;83.14
43681;BME280;29281;50.356;30.894;2023-08-20T00:14:03;100511.59;;;25.58;82.90
43681;BME280;29281;50.356;30.894;2023-08-20T00:15:10;100508.22;;;25.56;83.00
43681;BME280;29281;50.356;30.894;2023-08-20T00:16:17;100511.13;;;25.55;83.17
43681;BME280;29281;50.356;30.894;2023-08-20T00:17:28;100510.28;;;25.54;83.19
43681;BME280;29281;50.356;30.894;2023-08-20T00:18:32;100511.78;;;25.57;82.97
43681;BME280;29281;50.356;30.894;2023-08-20T00:19:38;100508.03;;;25.58;82.85
43681;BME280;29281;50.356;30.894;2023-08-20T00:20:46;100509.20;;;25.49;83.38
43681;BME280;29281;50.356;30.894;2023-08-20T00:21:50;100507.70;;;25.46;83.63
43681;BME280;29281;50.356;30.894;2023-08-20T00:22:52;100508.47;;;25.40;84.10
43681;BME280;29281;50.356;30.894;2023-08-20T00:23:58;100513.33;;;25.45;83.89
43681;BME280;29281;50.356;30.894;2023-08-20T00:25:01;100505.83;;;25.47;83.99
43681;BME280;29281;50.356;30.894;2023-08-20T00:26:13;100507.70;;;25.46;83.93
43681;BME280;29281;50.356;30.894;2023-08-20T00:27:17;100507.89;;;25.45;84.08
43681;BME280;29281;50.356;30.894;2023-08-20T00:28:22;100512.11;;;25.47;83.75
43681;BME280;29281;50.356;30.894;2023-08-20T00:29:25;100501.80;;;25.43;84.17
43681;BME280;29281;50.356;30.894;2023-08-20T00:30:32;100503.81;;;25.34;84.70
43681;BME280;29281;50.356;30.894;2023-08-20T00:31:36;100501.28;;;25.33;84.88
43681;BME280;29281;50.356;30.894;2023-08-20T00:32:39;100499.79;;;25.30;85.08
43681;BME280;29281;50.356;30.894;2023-08-20T00:33:47;100501.39;;;25.24;85.40
43681;BME280;29281;50.356;30.894;2023-08-20T00:34:56;100500.17;;;25.27;86.00
43681;BME280;29281;50.356;30.894;2023-08-20T00:36:03;100501.72;;;25.36;85.27
43681;BME280;29281;50.356;30.894;2023-08-20T00:37:07;100495.91;;;25.39;84.83
43681;BME280;29281;50.356;30.894;2023-08-20T00:38:12;100496.09;;;25.38;85.02
43681;BME280;29281;50.356;30.894;2023-08-20T00:39:15;100497.78;;;25.39;84.90
43681;BME280;29281;50.356;30.894;2023-08-20T00:40:18;100489.81;;;25.37;85.07
43681;BME280;29281;50.356;30.894;2023-08-20T00:41:22;100492.20;;;25.26;85.69
43681;BME280;29281;50.356;30.894;2023-08-20T00:42:28;100494.86;;;25.19;86.36
43681;BME280;29281;50.356;30.894;2023-08-20T00:43:36;100498.86;;;25.23;86.29
43681;BME280;29281;50.356;30.894;2023-08-20T00:44:41;100490.89;;;25.21;86.40
43681;BME280;29281;50.356;30.894;2023-08-20T00:45:53;100501.02;;;25.28;85.89
43681;BME280;29281;50.356;30.894;2023-08-20T00:46:57;100501.09;;;25.34;85.38
43681;BME280;29281;50.356;30.894;2023-08-20T00:48:04;100499.84;;;25.37;85.20
43681;BME280;29281;50.356;30.894;2023-08-20T00:49:09;100499.60;;;25.32;85.90
43681;BME280;29281;50.356;30.894;2023-08-20T00:50:13;100499.52;;;25.25;86.20
43681;BME280;29281;50.356;30.894;2023-08-20T00:51:18;100502.42;;;25.23;86.31
43681;BME280;29281;50.356;30.894;2023-08-20T00:52:22;100501.77;;;25.21;86.38
43681;BME280;29281;50.356;30.894;2023-08-20T00:53:26;100503.64;;;25.21;86.37
43681;BME280;29281;50.356;30.894;2023-08-20T00:54:30;100506.77;;;25.18;86.47
43681;BME280;29281;50.356;30.894;2023-08-20T00:55:36;100502.17;;;25.18;86.87
43681;BME280;29281;50.356;30.894;2023-08-20T00:56:40;100506.67;;;25.11;87.42
43681;BME280;29281;50.356;30.894;2023-08-20T00:57:47;100493.37;;;25.16;86.99
43681;BME280;29281;50.356;30.894;2023-08-20T00:58:52;100501.24;;;25.11;87.20
43681;BME280;29281;50.356;30.894;2023-08-20T00:59:56;100498.65;;;25.03;87.68
43681;BME280;29281;50.356;30.894;2023-08-20T01:01:00;100504.27;;;25.02;87.70
43681;BME280;29281;50.356;30.894;2023-08-20T01:02:04;100504.27;;;25.02;87.78
43681;BME280;29281;50.356;30.894;2023-08-20T01:03:09;100495.27;;;25.01;87.95
43681;BME280;29281;50.356;30.894;2023-08-20T01:04:13;100495.84;;;24.97;88.33
43681;BME280;29281;50.356;30.894;2023-08-20T01:05:16;100493.84;;;24.90;88.67
43681;BME280;29281;50.356;30.894;2023-08-20T01:09:16;100492.73;;;24.85;89.25
43681;BME280;29281;50.356;30.894;2023-08-20T01:10:23;100485.50;;;24.92;88.61
43681;BME280;29281;50.356;30.894;2023-08-20T01:11:26;100488.99;;;24.86;89.29
43681;BME280;29281;50.356;30.894;2023-08-20T01:12:31;100486.18;;;24.79;89.60
43681;BME280;29281;50.356;30.894;2023-08-20T01:13:35;100486.48;;;24.70;90.02
43681;BME280;29281;50.356;30.894;2023-08-20T01:14:38;100482.27;;;24.67;90.28
43681;BME280;29281;50.356;30.894;2023-08-20T01:15:45;100484.14;;;24.52;91.02
43681;BME280;29281;50.356;30.894;2023-08-20T01:16:49;100473.66;;;24.49;91.13
43681;BME280;29281;50.356;30.894;2023-08-20T01:17:55;100480.22;;;24.40;91.85
43681;BME280;29281;50.356;30.894;2023-08-20T01:18:59;100473.28;;;24.37;91.96
43681;BME280;29281;50.356;30.894;2023-08-20T01:20:05;100479.00;;;24.28;92.55
43681;BME280;29281;50.356;30.894;2023-08-20T01:21:24;100478.34;;;24.26;92.89
43681;BME280;29281;50.356;30.894;2023-08-20T01:26:07;100474.08;;;24.08;94.42
43681;BME280;29281;50.356;30.894;2023-08-20T01:27:26;100472.77;;;24.19;93.73
43681;BME280;29281;50.356;30.894;2023-08-20T01:28:29;100472.77;;;24.19;93.68
43681;BME280;29281;50.356;30.894;2023-08-20T01:29:34;100472.91;;;24.26;93.66
43681;BME280;29281;50.356;30.894;2023-08-20T01:30:38;100481.50;;;24.29;93.10
43681;BME280;29281;50.356;30.894;2023-08-20T01:31:46;100479.00;;;24.28;93.43
43681;BME280;29281;50.356;30.894;2023-08-20T01:32:55;100475.34;;;24.35;92.79
43681;BME280;29281;50.356;30.894;2023-08-20T01:34:00;100469.36;;;24.40;92.30
43681;BME280;29281;50.356;30.894;2023-08-20T01:35:11;100475.63;;;24.40;92.37
43681;BME280;29281;50.356;30.894;2023-08-20T01:36:18;100477.21;;;24.35;92.51
43681;BME280;29281;50.356;30.894;2023-08-20T01:37:24;100474.86;;;24.32;92.74
43681;BME280;29281;50.356;30.894;2023-08-20T01:38:28;100477.83;;;24.22;93.43
43681;BME280;29281;50.356;30.894;2023-08-20T01:39:37;100469.21;;;24.18;93.67
43681;BME280;29281;50.356;30.894;2023-08-20T01:40:40;100480.73;;;24.20;93.57
43681;BME280;29281;50.356;30.894;2023-08-20T01:41:46;100476.66;;;24.25;93.22
43681;BME280;29281;50.356;30.894;2023-08-20T01:42:50;100479.37;;;24.25;93.37
43681;BME280;29281;50.356;30.894;2023-08-20T01:43:54;100470.72;;;24.21;93.66
43681;BME280;29281;50.356;30.894;2023-08-20T01:44:57;100472.40;;;24.22;93.54
43681;BME280;29281;50.356;30.894;2023-08-20T01:46:03;100477.68;;;24.24;93.63
43681;BME280;29281;50.356;30.894;2023-08-20T01:47:07;100477.13;;;24.28;93.38
43681;BME280;29281;50.356;30.894;2023-08-20T01:48:10;100476.73;;;24.31;93.18
43681;BME280;29281;50.356;30.894;2023-08-20T01:49:14;100470.28;;;24.32;93.20
43681;BME280;29281;50.356;30.894;2023-08-20T01:50:19;100474.31;;;24.36;92.80
43681;BME280;29281;50.356;30.894;2023-08-20T01:51:22;100473.17;;;24.31;92.93
43681;BME280;29281;50.356;30.894;2023-08-20T01:52:27;100474.86;;;24.32;93.18
43681;BME280;29281;50.356;30.894;2023-08-20T01:53:32;100476.28;;;24.28;93.51
43681;BME280;29281;50.356;30.894;2023-08-20T01:54:38;100472.40;;;24.22;94.11
43681;BME280;29281;50.356;30.894;2023-08-20T01:55:45;100469.39;;;24.17;94.61
43681;BME280;29281;50.356;30.894;2023-08-20T01:56:49;100477.17;;;24.20;94.35
43681;BME280;29281;50.356;30.894;2023-08-20T01:57:52;100465.61;;;24.26;93.94
43681;BME280;29281;50.356;30.894;2023-08-20T01:58:58;100469.06;;;24.35;93.51
43681;BME280;29281;50.356;30.894;2023-08-20T02:00:05;100468.22;;;24.34;93.68
43681;BME280;29281;50.356;30.894;2023-08-20T02:01:16;100463.82;;;24.33;93.24
43681;BME280;29281;50.356;30.894;2023-08-20T02:02:21;100477.68;;;24.24;94.10
43681;BME280;29281;50.356;30.894;2023-08-20T02:03:24;100472.95;;;24.17;94.78
43681;BME280;29281;50.356;30.894;2023-08-20T02:04:28;100469.39;;;24.17;94.69
43681;BME280;29281;50.356;30.894;2023-08-20T02:05:32;100472.56;;;24.06;95.31
43681;BME280;29281;50.356;30.894;2023-08-20T02:06:36;100466.78;;;24.09;95.16
43681;BME280;29281;50.356;30.894;2023-08-20T02:07:41;100472.02;;;24.10;95.15
43681;BME280;29281;50.356;30.894;2023-08-20T02:08:47;100471.54;;;24.07;95.65
43681;BME280;29281;50.356;30.894;2023-08-20T02:09:51;100472.28;;;24.15;94.92
43681;BME280;29281;50.356;30.894;2023-08-20T02:11:05;100475.48;;;24.19;94.96
43681;BME280;29281;50.356;30.894;2023-08-20T02:12:06;100477.83;;;24.22;94.68
43681;BME280;29281;50.356;30.894;2023-08-20T02:13:18;100469.17;;;24.27;94.36
43681;BME280;29281;50.356;30.894;2023-08-20T02:14:23;100466.83;;;24.24;94.52
43681;BME280;29281;50.356;30.894;2023-08-20T02:15:27;100470.38;;;24.24;94.05
43681;BME280;29281;50.356;30.894;2023-08-20T02:16:35;100473.31;;;24.14;94.27
43681;BME280;29281;50.356;30.894;2023-08-20T02:17:39;100477.30;;;23.89;96.12
43681;BME280;29281;50.356;30.894;2023-08-20T02:18:43;100478.11;;;23.75;97.24
43681;BME280;29281;50.356;30.894;2023-08-20T02:19:47;100467.13;;;23.68;97.90
43681;BME280;29281;50.356;30.894;2023-08-20T02:20:50;100474.91;;;23.71;97.97
43681;BME280;29281;50.356;30.894;2023-08-20T02:21:53;100478.41;;;23.80;97.59
43681;BME280;29281;50.356;30.894;2023-08-20T02:22:57;100475.22;;;23.76;97.62
43681;BME280;29281;50.356;30.894;2023-08-20T02:24:01;100472.98;;;23.80;97.44
43681;BME280;29281;50.356;30.894;2023-08-20T02:25:07;100476.06;;;23.77;97.85
43681;BME280;29281;50.356;30.894;2023-08-20T02:26:12;100474.28;;;23.84;97.46
43681;BME280;29281;50.356;30.894;2023-08-20T02:27:16;100478.14;;;23.90;97.28
43681;BME280;29281;50.356;30.894;2023-08-20T02:28:20;100476.22;;;23.98;96.60
43681;BME280;29281;50.356;30.894;2023-08-20T02:29:24;100473.11;;;24.01;96.48
43681;BME280;29281;50.356;30.894;2023-08-20T02:30:39;100480.89;;;24.04;96.42
43681;BME280;29281;50.356;30.894;2023-08-20T02:31:41;100481.55;;;24.06;96.34
43681;BME280;29281;50.356;30.894;2023-08-20T02:32:43;100480.52;;;24.07;96.27
43681;BME280;29281;50.356;30.894;2023-08-20T02:33:50;100482.03;;;24.10;96.10
43681;BME280;29281;50.356;30.894;2023-08-20T02:34:54;100481.09;;;24.17;95.73
43681;BME280;29281;50.356;30.894;2023-08-20T02:36:02;100477.09;;;24.13;95.60
43681;BME280;29281;50.356;30.894;2023-08-20T02:37:09;100476.24;;;24.13;95.62
43681;BME280;29281;50.356;30.894;2023-08-20T02:38:13;100479.58;;;24.15;95.75
43681;BME280;29281;50.356;30.894;2023-08-20T02:39:19;100478.19;;;24.19;95.24
43681;BME280;29281;50.356;30.894;2023-08-20T02:40:22;100473.79;;;24.18;95.30
43681;BME280;29281;50.356;30.894;2023-08-20T02:41:25;100483.63;;;24.19;95.04
43681;BME280;29281;50.356;30.894;2023-08-20T02:42:30;100470.23;;;24.17;95.25
43681;BME280;29281;50.356;30.894;2023-08-20T02:43:36;100484.83;;;24.16;95.11
43681;BME280;29281;50.356;30.894;2023-08-20T02:44:41;100482.78;;;24.18;95.04
43681;BME280;29281;50.356;30.894;2023-08-20T02:45:45;100478.38;;;24.17;95.21
43681;BME280;29281;50.356;30.894;2023-08-20T02:46:58;100482.94;;;24.02;96.52
43681;BME280;29281;50.356;30.894;2023-08-20T02:48:05;100482.58;;;24.05;96.31
43681;BME280;29281;50.356;30.894;2023-08-20T02:49:09;100487.82;;;24.07;96.34
43681;BME280;29281;50.356;30.894;2023-08-20T02:50:13;100485.41;;;24.12;96.03
43681;BME280;29281;50.356;30.894;2023-08-20T02:51:15;100488.30;;;24.10;96.00
43681;BME280;29281;50.356;30.894;2023-08-20T02:52:20;100486.97;;;24.06;96.24
43681;BME280;29281;50.356;30.894;2023-08-20T02:53:23;100477.15;;;24.05;96.45
43681;BME280;29281;50.356;30.894;2023-08-20T02:54:26;100481.25;;;24.01;96.34
43681;BME280;29281;50.356;30.894;2023-08-20T02:55:33;100484.36;;;23.98;96.12
43681;BME280;29281;50.356;30.894;2023-08-20T02:56:38;100485.38;;;23.97;96.69
43681;BME280;29281;50.356;30.894;2023-08-20T02:57:42;100481.91;;;24.03;96.20
43681;BME280;29281;50.356;30.894;2023-08-20T02:58:49;100481.73;;;24.05;96.13
43681;BME280;29281;50.356;30.894;2023-08-20T02:59:54;100477.81;;;24.07;96.15
43681;BME280;29281;50.356;30.894;2023-08-20T03:00:58;100479.31;;;24.10;95.81
43681;BME280;29281;50.356;30.894;2023-08-20T03:02:02;100477.27;;;24.12;95.59
43681;BME280;29281;50.356;30.894;2023-08-20T03:03:11;100482.69;;;24.12;95.77
43681;BME280;29281;50.356;30.894;2023-08-20T03:04:21;100483.80;;;24.17;95.00
43681;BME280;29281;50.356;30.894;2023-08-20T03:05:22;100484.65;;;24.18;95.17
43681;BME280;29281;50.356;30.894;2023-08-20T03:06:26;100483.80;;;24.17;95.04
43681;BME280;29281;50.356;30.894;2023-08-20T03:07:31;100485.85;;;24.15;95.10
43681;BME280;29281;50.356;30.894;2023-08-20T03:08:39;100481.45;;;24.14;95.21
43681;BME280;29281;50.356;30.894;2023-08-20T03:09:45;100477.87;;;23.99;96.16
43681;BME280;29281;50.356;30.894;2023-08-20T03:10:50;100476.64;;;23.87;97.10
43681;BME280;29281;50.356;30.894;2023-08-20T03:11:53;100480.86;;;23.90;97.14
43681;BME280;29281;50.356;30.894;2023-08-20T03:12:58;100471.42;;;24.00;96.36
43681;BME280;29281;50.356;30.894;2023-08-20T03:14:01;100477.15;;;24.05;96.14
43681;BME280;29281;50.356;30.894;2023-08-20T03:15:08;100472.20;;;24.09;96.16
43681;BME280;29281;50.356;30.894;2023-08-20T03:16:12;100475.83;;;24.01;96.48
43681;BME280;29281;50.356;30.894;2023-08-20T03:17:17;100478.17;;;24.04;96.45
43681;BME280;29281;50.356;30.894;2023-08-20T03:18:21;100476.84;;;24.00;96.92
43681;BME280;29281;50.356;30.894;2023-08-20T03:19:25;100473.69;;;23.97;97.08
43681;BME280;29281;50.356;30.894;2023-08-20T03:20:28;100480.80;;;23.98;97.12
43681;BME280;29281;50.356;30.894;2023-08-20T03:21:31;100474.59;;;23.89;97.84
43681;BME280;29281;50.356;30.894;2023-08-20T03:22:35;100484.59;;;23.89;97.74
43681;BME280;29281;50.356;30.894;2023-08-20T03:23:39;100471.03;;;23.89;98.01
43681;BME280;29281;50.356;30.894;2023-08-20T03:24:43;100472.45;;;23.99;97.38
43681;BME280;29281;50.356;30.894;2023-08-20T03:25:45;100471.91;;;24.04;96.90
43681;BME280;29281;50.356;30.894;2023-08-20T03:26:50;100480.41;;;24.01;97.35
43681;BME280;29281;50.356;30.894;2023-08-20T03:27:52;100476.12;;;24.06;97.18
43681;BME280;29281;50.356;30.894;2023-08-20T03:28:56;100480.70;;;24.06;97.20
43681;BME280;29281;50.356;30.894;2023-08-20T03:30:03;100478.09;;;23.98;97.71
43681;BME280;29281;50.356;30.894;2023-08-20T03:31:11;100481.37;;;24.08;97.16
43681;BME280;29281;50.356;30.894;2023-08-20T03:32:16;100482.88;;;24.10;96.93
43681;BME280;29281;50.356;30.894;2023-08-20T03:33:19;100474.37;;;24.13;96.62
43681;BME280;29281;50.356;30.894;2023-08-20T03:34:23;100476.32;;;24.19;96.29
43681;BME280;29281;50.356;30.894;2023-08-20T03:35:25;100474.13;;;24.23;95.80
43681;BME280;29281;50.356;30.894;2023-08-20T03:36:33;100473.42;;;24.21;95.95
43681;BME280;29281;50.356;30.894;2023-08-20T03:37:42;100475.81;;;24.24;95.75
43681;BME280;29281;50.356;30.894;2023-08-20T03:38:45;100480.39;;;24.24;95.75
43681;BME280;29281;50.356;30.894;2023-08-20T03:39:49;100482.56;;;24.28;95.57
43681;BME280;29281;50.356;30.894;2023-08-20T03:40:53;100476.19;;;24.36;94.99
43681;BME280;29281;50.356;30.894;2023-08-20T03:41:58;100470.47;;;24.45;94.39
43681;BME280;29281;50.356;30.894;2023-08-20T03:43:00;100475.62;;;24.55;93.92
43681;BME280;29281;50.356;30.894;2023-08-20T03:44:04;100474.67;;;24.63;93.22
43681;BME280;29281;50.356;30.894;2023-08-20T03:45:07;100469.53;;;24.68;92.83
43681;BME280;29281;50.356;30.894;2023-08-20T03:46:12;100470.00;;;24.71;92.48
43681;BME280;29281;50.356;30.894;2023-08-20T03:47:19;100479.25;;;24.77;92.28
43681;BME280;29281;50.356;30.894;2023-08-20T03:48:23;100469.51;;;24.82;91.75
43681;BME280;29281;50.356;30.894;2023-08-20T03:49:27;100475.31;;;24.79;91.84
43681;BME280;29281;50.356;30.894;2023-08-20T03:50:31;100473.38;;;24.73;92.40
43681;BME280;29281;50.356;30.894;2023-08-20T03:51:38;100469.53;;;24.68;93.00
43681;BME280;29281;50.356;30.894;2023-08-20T03:52:43;100475.52;;;24.63;93.28
43681;BME280;29281;50.356;30.894;2023-08-20T03:53:46;100474.67;;;24.63;93.40
43681;BME280;29281;50.356;30.894;2023-08-20T03:54:51;100468.31;;;24.70;92.79
43681;BME280;29281;50.356;30.894;2023-08-20T03:55:56;100477.97;;;24.73;92.96
43681;BME280;29281;50.356;30.894;2023-08-20T03:56:59;100474.66;;;24.77;92.48
43681;BME280;29281;50.356;30.894;2023-08-20T03:58:05;100471.37;;;24.82;92.48
43681;BME280;29281;50.356;30.894;2023-08-20T03:59:11;100469.70;;;24.81;92.79
43681;BME280;29281;50.356;30.894;2023-08-20T04:00:16;100475.48;;;24.93;92.24
43681;BME280;29281;50.356;30.894;2023-08-20T04:01:21;100469.42;;;25.05;91.65
43681;BME280;29281;50.356;30.894;2023-08-20T04:02:24;100470.78;;;25.16;90.88
43681;BME280;29281;50.356;30.894;2023-08-20T04:03:28;100466.05;;;25.24;90.76
43681;BME280;29281;50.356;30.894;2023-08-20T04:04:35;100465.95;;;25.33;90.54
43681;BME280;29281;50.356;30.894;2023-08-20T04:05:42;100464.72;;;25.35;89.44
43681;BME280;29281;50.356;30.894;2023-08-20T04:06:45;100474.48;;;25.30;90.21
43681;BME280;29281;50.356;30.894;2023-08-20T04:07:49;100470.08;;;25.29;90.47
43681;BME280;29281;50.356;30.894;2023-08-20T04:08:55;100469.89;;;25.30;90.25
43681;BME280;29281;50.356;30.894;2023-08-20T04:10:00;100468.53;;;25.19;90.96
43681;BME280;29281;50.356;30.894;2023-08-20T04:11:05;100464.31;;;25.17;91.26
43681;BME280;29281;50.356;30.894;2023-08-20T04:12:09;100462.06;;;25.20;91.74
43681;BME280;29281;50.356;30.894;2023-08-20T04:13:22;100468.31;;;25.21;91.82
43681;BME280;29281;50.356;30.894;2023-08-20T04:14:27;100465.67;;;25.28;91.86
43681;BME280;29281;50.356;30.894;2023-08-20T04:15:30;100468.06;;;25.37;91.02
43681;BME280;29281;50.356;30.894;2023-08-20T04:16:34;100470.40;;;25.40;90.77
43681;BME280;29281;50.356;30.894;2023-08-20T04:17:38;100465.23;;;25.45;90.60
43681;BME280;29281;50.356;30.894;2023-08-20T04:18:41;100472.55;;;25.45;90.22
43681;BME280;29281;50.356;30.894;2023-08-20T04:19:49;100463.02;;;25.55;89.88
43681;BME280;29281;50.356;30.894;2023-08-20T04:20:54;100469.45;;;25.69;88.85
43681;BME280;29281;50.356;30.894;2023-08-20T04:22:00;100465.77;;;25.77;88.51
43681;BME280;29281;50.356;30.894;2023-08-20T04:23:03;100471.05;;;25.85;87.72
43681;BME280;29281;50.356;30.894;2023-08-20T04:24:07;100463.61;;;25.93;88.35
43681;BME280;29281;50.356;30.894;2023-08-20T04:25:10;100467.07;;;26.09;87.28
43681;BME280;29281;50.356;30.894;2023-08-20T04:26:16;100462.89;;;26.13;86.64
43681;BME280;29281;50.356;30.894;2023-08-20T04:27:19;100472.16;;;26.18;86.03
43681;BME280;29281;50.356;30.894;2023-08-20T04:28:23;100465.28;;;26.22;85.47
43681;BME280;29281;50.356;30.894;2023-08-20T04:29:28;100470.20;;;26.34;84.81
43681;BME280;29281;50.356;30.894;2023-08-20T04:30:34;100463.14;;;26.46;84.00
43681;BME280;29281;50.356;30.894;2023-08-20T04:31:40;100455.66;;;26.54;83.61
43681;BME280;29281;50.356;30.894;2023-08-20T04:32:47;100456.31;;;26.63;83.57
43681;BME280;29281;50.356;30.894;2023-08-20T04:33:57;100449.88;;;26.71;82.41
43681;BME280;29281;50.356;30.894;2023-08-20T04:35:02;100457.42;;;26.75;82.13
43681;BME280;29281;50.356;30.894;2023-08-20T04:36:08;100457.66;;;26.80;81.21
43681;BME280;29281;50.356;30.894;2023-08-20T04:37:16;100455.17;;;26.85;80.78
43681;BME280;29281;50.356;30.894;2023-08-20T04:38:20;100452.66;;;26.90;80.68
43681;BME280;29281;50.356;30.894;2023-08-20T04:39:25;100455.25;;;26.99;81.28
43681;BME280;29281;50.356;30.894;2023-08-20T04:40:32;100458.02;;;27.12;80.30
43681;BME280;29281;50.356;30.894;2023-08-20T04:41:37;100452.36;;;27.13;80.04
43681;BME280;29281;50.356;30.894;2023-08-20T04:42:44;100461.38;;;27.14;78.89
43681;BME280;29281;50.356;30.894;2023-08-20T04:43:48;100460.70;;;26.99;79.38
43681;BME280;29281;50.356;30.894;2023-08-20T04:44:53;100456.94;;;27.00;78.88
43681;BME280;29281;50.356;30.894;2023-08-20T04:45:58;100457.14;;;27.05;78.75
43681;BME280;29281;50.356;30.894;2023-08-20T04:47:03;100455.05;;;27.00;78.66
43681;BME280;29281;50.356;30.894;2023-08-20T04:48:08;100464.47;;;26.98;78.27
43681;BME280;29281;50.356;30.894;2023-08-20T04:49:15;100459.66;;;27.00;78.35
43681;BME280;29281;50.356;30.894;2023-08-20T04:50:20;100451.28;;;27.08;78.45
43681;BME280;29281;50.356;30.894;2023-08-20T04:51:25;100453.00;;;27.15;78.12
43681;BME280;29281;50.356;30.894;2023-08-20T04:52:29;100454.06;;;27.27;78.36
43681;BME280;29281;50.356;30.894;2023-08-20T04:53:33;100452.20;;;27.41;77.46
43681;BME280;29281;50.356;30.894;2023-08-20T04:54:40;100455.63;;;27.63;76.33
43681;BME280;29281;50.356;30.894;2023-08-20T04:55:43;100464.02;;;27.88;76.21
43681;BME280;29281;50.356;30.894;2023-08-20T04:56:47;100459.80;;;28.31;73.87
43681;BME280;29281;50.356;30.894;2023-08-20T04:57:50;100461.18;;;28.67;71.65
43681;BME280;29281;50.356;30.894;2023-08-20T04:58:54;100465.77;;;28.73;70.12
43681;BME280;29281;50.356;30.894;2023-08-20T05:00:07;100463.61;;;28.95;69.29
43681;BME280;29281;50.356;30.894;2023-08-20T05:01:14;100469.08;;;29.39;67.75
43681;BME280;29281;50.356;30.894;2023-08-20T05:02:21;100470.73;;;29.72;66.64
43681;BME280;29281;50.356;30.894;2023-08-20T05:03:26;100476.38;;;30.08;65.19
43681;BME280;29281;50.356;30.894;2023-08-20T05:04:38;100473.77;;;30.75;63.14
43681;BME280;29281;50.356;30.894;2023-08-20T05:05:42;100484.81;;;32.30;57.57
43681;BME280;29281;50.356;30.894;2023-08-20T05:06:47;100491.80;;;33.98;52.38
43681;BME280;29281;50.356;30.894;2023-08-20T05:07:52;100490.60;;;35.04;48.56
43681;BME280;29281;50.356;30.894;2023-08-20T05:08:56;100511.61;;;36.13;45.75
43681;BME280;29281;50.356;30.894;2023-08-20T05:10:00;100515.73;;;36.89;43.71
43681;BME280;29281;50.356;30.894;2023-08-20T05:11:06;100524.83;;;37.62;41.93
43681;BME280;29281;50.356;30.894;2023-08-20T05:12:10;100520.44;;;37.77;41.14
43681;BME280;29281;50.356;30.894;2023-08-20T05:13:13;100526.41;;;37.23;41.85
43681;BME280;29281;50.356;30.894;2023-08-20T05:14:17;100523.24;;;36.15;44.22
43681;BME280;29281;50.356;30.894;2023-08-20T05:15:21;100522.44;;;35.60;46.08
43681;BME280;29281;50.356;30.894;2023-08-20T05:16:29;100519.50;;;34.97;46.97
43681;BME280;29281;50.356;30.894;2023-08-20T05:17:36;100506.66;;;34.47;48.42
43681;BME280;29281;50.356;30.894;2023-08-20T05:18:44;100510.83;;;34.88;47.81
43681;BME280;29281;50.356;30.894;2023-08-20T05:19:46;100511.08;;;34.86;47.53
43681;BME280;29281;50.356;30.894;2023-08-20T05:20:50;100515.90;;;34.57;48.21
43681;BME280;29281;50.356;30.894;2023-08-20T05:21:55;100507.83;;;33.84;49.82
43681;BME280;29281;50.356;30.894;2023-08-20T05:23:03;100497.80;;;33.21;51.49
43681;BME280;29281;50.356;30.894;2023-08-20T05:24:08;100502.36;;;32.64;53.63
43681;BME280;29281;50.356;30.894;2023-08-20T05:25:13;100494.50;;;32.32;54.88
43681;BME280;29281;50.356;30.894;2023-08-20T05:26:18;100493.63;;;32.55;54.36
43681;BME280;29281;50.356;30.894;2023-08-20T05:27:23;100498.13;;;33.36;51.89
43681;BME280;29281;50.356;30.894;2023-08-20T05:28:26;100507.87;;;34.56;48.73
43681;BME280;29281;50.356;30.894;2023-08-20T05:29:30;100502.31;;;34.73;47.90
43681;BME280;29281;50.356;30.894;2023-08-20T05:30:34;100510.86;;;34.33;48.89
43681;BME280;29281;50.356;30.894;2023-08-20T05:31:39;100501.83;;;34.04;49.96
43681;BME280;29281;50.356;30.894;2023-08-20T05:32:43;100501.73;;;34.49;49.22
43681;BME280;29281;50.356;30.894;2023-08-20T05:33:52;100500.31;;;35.55;46.88
43681;BME280;29281;50.356;30.894;2023-08-20T05:34:53;100508.77;;;36.35;45.08
43681;BME280;29281;50.356;30.894;2023-08-20T05:35:57;100512.63;;;36.34;44.48
43681;BME280;29281;50.356;30.894;2023-08-20T05:37:01;100514.52;;;36.28;44.54
43681;BME280;29281;50.356;30.894;2023-08-20T05:38:07;100511.36;;;35.82;45.42
43681;BME280;29281;50.356;30.894;2023-08-20T05:39:10;100510.03;;;35.14;46.29
43681;BME280;29281;50.356;30.894;2023-08-20T05:40:13;100509.08;;;34.10;48.77
43681;BME280;29281;50.356;30.894;2023-08-20T05:41:16;100497.55;;;33.23;51.45
43681;BME280;29281;50.356;30.894;2023-08-20T05:42:20;100497.72;;;32.53;53.82
43681;BME280;29281;50.356;30.894;2023-08-20T05:43:26;100499.10;;;32.08;55.31